Time;durP1;ratioP1;P1;durP2;ratioP2;P2;SDS_P1;SDS_P2;PMS_P1;PMS_P2;Temp;Humidity;BMP_temperature;BMP_pressure;BME280_temperature;BME280_humidity;BME280_pressure;Samples;Min_cycle;Max_cycle;Signal;HPM_P1;HPM_P2
2022/04/01 00:02:40;;;;;;;12.78;6.45;;;;;;;4.38;69.56;98753.13;2857113;81;21095;-82
2022/04/01 00:06:42;;;;;;;14.15;9.28;;;;;;;4.27;69.95;98748.73;2767684;83;21080;-83
2022/04/01 00:10:43;;;;;;;9.85;5.95;;;;;;;4.28;71.11;98754.35;2798174;82;21001;-83
2022/04/01 00:14:45;;;;;;;10.90;6.50;;;;;;;4.10;70.34;98761.44;2856336;81;20959;-82
2022/04/01 00:18:46;;;;;;;9.80;6.50;;;;;;;4.05;71.52;98759.66;2848753;80;21063;-83
2022/04/01 00:22:48;;;;;;;16.32;7.70;;;;;;;3.91;73.88;98755.96;2836614;81;21681;-83
2022/04/01 00:26:49;;;;;;;10.28;7.15;;;;;;;3.79;74.20;98749.41;2812047;81;21027;-83
2022/04/01 00:30:51;;;;;;;12.98;8.68;;;;;;;3.69;74.10;98756.33;2847663;82;21026;-83
2022/04/01 00:34:52;;;;;;;12.20;7.62;;;;;;;3.61;73.19;98750.34;2819660;82;21028;-83
2022/04/01 00:38:54;;;;;;;14.07;8.88;;;;;;;3.72;74.75;98748.20;2855037;82;20988;-83
2022/04/01 00:42:55;;;;;;;14.47;8.10;;;;;;;3.82;75.96;98749.63;2829443;81;21009;-83
2022/04/01 00:47:01;;;;;;;10.23;7.28;;;;;;;3.84;75.06;98743.30;2841447;82;21003;-81
2022/04/01 00:51:03;;;;;;;15.60;8.20;;;;;;;3.86;74.21;98748.45;2819159;80;21056;-83
2022/04/01 00:55:08;;;;;;;8.95;6.72;;;;;;;3.85;73.18;98741.02;2762754;84;21066;-83
2022/04/01 00:59:10;;;;;;;18.07;7.20;;;;;;;3.85;72.50;98754.18;2765642;84;21086;-83
2022/04/01 01:03:13;;;;;;;12.73;8.15;;;;;;;3.77;72.40;98751.33;2773342;83;21067;-83
2022/04/01 01:07:15;;;;;;;13.48;7.70;;;;;;;3.73;72.10;98744.61;2773397;83;21051;-82
2022/04/01 01:11:16;;;;;;;13.13;7.80;;;;;;;3.72;72.03;98746.88;2740514;83;21608;-83
2022/04/01 01:15:19;;;;;;;7.03;6.33;;;;;;;3.76;72.15;98764.13;2754660;82;21576;-83
2022/04/01 01:19:20;;;;;;;9.60;6.67;;;;;;;3.76;72.66;98751.44;2764805;84;21055;-83
2022/04/01 01:23:31;;;;;;;10.25;6.17;;;;;;;3.70;72.75;98744.84;2748179;84;21067;-83
2022/04/01 01:27:32;;;;;;;9.18;5.67;;;;;;;3.69;73.99;98749.75;2838067;81;21617;-82
2022/04/01 01:31:34;;;;;;;11.93;8.10;;;;;;;3.64;73.46;98746.66;2828170;81;21483;-82
2022/04/01 01:35:36;;;;;;;9.25;5.92;;;;;;;3.59;73.57;98747.50;2738173;82;21598;-82
2022/04/01 01:39:38;;;;;;;9.68;7.22;;;;;;;3.52;74.91;98745.32;2834234;81;21497;-82
2022/04/01 01:43:41;;;;;;;9.83;5.97;;;;;;;3.31;74.89;98745.20;2833982;82;21074;-82
2022/04/01 01:47:42;;;;;;;9.58;6.05;;;;;;;3.27;75.61;98748.53;2784556;81;21012;-82
2022/04/01 01:56:05;;;;;;;11.05;6.35;;;;;;;3.15;77.74;98749.48;2791001;83;21199;-82
2022/04/01 02:00:18;;;;;;;12.78;8.78;;;;;;;3.02;78.19;98754.80;2779749;82;21582;-82
2022/04/01 02:04:13;;;;;;;13.18;7.33;;;;;;;2.84;79.36;98749.97;2809581;82;21859;-82
2022/04/01 02:08:14;;;;;;;11.88;8.48;;;;;;;2.81;80.34;98744.13;2789417;82;21027;-82
2022/04/01 02:12:16;;;;;;;11.48;7.95;;;;;;;2.74;81.26;98737.63;2813357;82;21020;-83
2022/04/01 02:16:19;;;;;;;16.75;7.40;;;;;;;2.69;81.44;98736.69;2826973;82;21474;-82
2022/04/01 02:20:20;;;;;;;9.38;7.25;;;;;;;2.69;82.13;98729.63;2791592;83;21143;-82
2022/04/01 02:24:24;;;;;;;8.78;5.78;;;;;;;2.66;81.28;98732.98;2783600;83;21115;-82
2022/04/01 02:28:25;;;;;;;17.05;7.45;;;;;;;2.63;80.93;98731.41;2798215;82;21588;-82
2022/04/01 02:32:26;;;;;;;11.03;6.22;;;;;;;2.64;81.67;98720.41;2804901;81;21165;-82
2022/04/01 02:36:28;;;;;;;14.23;7.58;;;;;;;2.55;81.65;98720.62;2808184;82;21824;-83
2022/04/01 02:40:29;;;;;;;12.05;8.38;;;;;;;2.56;82.40;98730.20;2787597;83;21573;-83
2022/04/01 02:44:31;;;;;;;12.73;7.10;;;;;;;2.55;83.00;98723.23;2806062;81;21158;-83
2022/04/01 02:48:33;;;;;;;12.30;7.78;;;;;;;2.57;83.61;98720.05;2856840;81;21134;-82
2022/04/01 02:52:34;;;;;;;15.10;8.43;;;;;;;2.57;84.00;98724.81;2848574;81;21131;-83
2022/04/01 02:56:38;;;;;;;12.15;6.80;;;;;;;2.60;84.38;98729.02;2830706;82;21145;-85
2022/04/01 03:00:39;;;;;;;10.93;6.33;;;;;;;2.57;84.52;98724.81;2867065;80;21047;-82
2022/04/01 03:04:42;;;;;;;12.03;7.58;;;;;;;2.59;85.49;98729.11;2831655;80;21012;-84
2022/04/01 03:08:43;;;;;;;12.25;6.95;;;;;;;2.61;85.97;98732.00;2895139;80;21052;-80
2022/04/01 03:12:45;;;;;;;8.85;7.83;;;;;;;2.51;84.95;98739.72;2844881;81;21099;-81
2022/04/01 03:16:46;;;;;;;10.93;7.20;;;;;;;2.49;85.19;98737.67;2768553;83;21031;-81
2022/04/01 03:20:47;;;;;;;9.93;6.55;;;;;;;2.43;85.23;98733.70;2809968;82;21088;-82
2022/04/01 03:24:49;;;;;;;11.08;7.92;;;;;;;2.36;85.37;98738.20;2803037;83;21694;-82
2022/04/01 03:28:50;;;;;;;17.60;8.80;;;;;;;2.29;85.75;98735.17;2812915;81;21055;-81
2022/04/01 03:32:51;;;;;;;14.53;7.87;;;;;;;2.28;85.98;98732.20;2829377;81;21102;-82
2022/04/01 03:36:54;;;;;;;14.00;9.03;;;;;;;2.30;86.01;98742.59;2818540;81;21054;-82
2022/04/01 03:40:56;;;;;;;12.65;7.50;;;;;;;2.28;86.03;98743.55;2845501;80;21048;-81
2022/04/01 03:45:03;;;;;;;15.05;8.65;;;;;;;2.21;86.70;98741.47;2802473;83;21039;-82
2022/04/01 03:49:08;;;;;;;9.93;8.05;;;;;;;2.18;87.02;98745.63;2840087;82;21074;-82
2022/04/01 03:53:10;;;;;;;12.47;8.48;;;;;;;2.18;87.70;98741.69;2846960;80;21085;-81
2022/04/01 03:57:15;;;;;;;13.20;9.95;;;;;;;2.09;87.08;98738.77;2816537;82;20984;-80
2022/04/01 04:01:16;;;;;;;16.37;7.58;;;;;;;2.04;87.74;98734.33;2831505;81;21105;-83
2022/04/01 04:05:21;;;;;;;10.38;7.85;;;;;;;2.01;87.18;98739.80;2801701;82;21173;-82
2022/04/01 04:09:24;;;;;;;12.47;8.83;;;;;;;1.88;87.43;98740.30;2794357;82;21056;-82
2022/04/01 04:13:25;;;;;;;14.05;7.12;;;;;;;1.76;87.89;98743.31;2812572;82;21665;-81
2022/04/01 04:17:44;;;;;;;14.78;8.35;;;;;;;1.67;88.50;98750.03;2791509;83;21056;-82
2022/04/01 04:22:15;;;;;;;14.85;8.30;;;;;;;1.62;89.57;98746.91;2846198;81;21035;-90
2022/04/01 04:26:24;;;;;;;10.58;6.70;;;;;;;1.51;89.22;98753.71;2756068;83;21075;-81
2022/04/01 04:30:37;;;;;;;9.55;7.40;;;;;;;1.51;90.01;98745.02;2754264;83;21033;-81
2022/04/01 04:34:38;;;;;;;9.35;8.15;;;;;;;1.53;90.28;98749.69;2835002;82;21016;-82
2022/04/01 04:38:43;;;;;;;22.37;15.35;;;;;;;1.45;90.24;98751.52;2849518;81;21045;-82
2022/04/01 04:42:46;;;;;;;13.40;7.78;;;;;;;1.44;90.41;98759.02;2798249;82;21075;-81
2022/04/01 04:46:48;;;;;;;12.88;9.80;;;;;;;1.34;90.76;98763.19;2789771;83;21072;-81
2022/04/01 04:55:17;;;;;;;14.83;10.53;;;;;;;1.30;91.77;98765.20;2820032;82;21626;-79
2022/04/01 04:59:21;;;;;;;13.45;7.97;;;;;;;1.25;91.81;98773.83;2806829;82;21071;-79
2022/04/01 05:03:58;;;;;;;15.48;8.50;;;;;;;1.25;91.51;98764.66;2787236;82;21043;-79
2022/04/01 05:08:41;;;;;;;11.48;7.75;;;;;;;1.24;91.37;98774.31;2856060;80;20983;-79
2022/04/01 05:13:12;;;;;;;12.23;7.80;;;;;;;1.26;91.16;98782.05;2842948;81;21553;-79
2022/04/01 05:17:36;;;;;;;12.20;7.42;;;;;;;1.28;90.87;98773.64;2845474;81;21071;-79
2022/04/01 05:22:06;;;;;;;11.38;8.73;;;;;;;1.25;90.28;98777.30;2853308;81;21081;-79
2022/04/01 05:26:13;;;;;;;14.03;8.33;;;;;;;1.23;90.35;98787.05;2864769;81;21652;-79
2022/04/01 05:30:16;;;;;;;13.40;8.75;;;;;;;1.22;90.47;98774.89;2872239;81;21031;-79
2022/04/01 05:34:35;;;;;;;16.62;8.88;;;;;;;1.18;90.11;98783.91;2870938;81;21381;-79
2022/04/01 05:38:38;;;;;;;8.83;7.70;;;;;;;1.22;90.38;98780.59;2888553;80;21060;-79
2022/04/01 05:42:41;;;;;;;12.28;8.50;;;;;;;1.23;90.40;98777.02;2865584;81;20975;-79
2022/04/01 05:46:44;;;;;;;8.68;6.95;;;;;;;1.23;89.83;98779.19;2861552;81;21109;-79
2022/04/01 05:50:46;;;;;;;10.38;7.60;;;;;;;1.28;90.74;98783.64;2843898;81;21574;-79
2022/04/01 05:54:48;;;;;;;10.45;6.40;;;;;;;1.34;89.62;98778.45;2857333;81;21555;-79
2022/04/01 05:58:50;;;;;;;12.00;8.05;;;;;;;1.28;89.69;98788.87;2841860;81;21591;-79
2022/04/01 06:03:09;;;;;;;9.65;7.80;;;;;;;1.30;89.67;98790.09;2855226;81;21003;-79
2022/04/01 06:07:28;;;;;;;11.68;7.95;;;;;;;1.27;89.32;98791.13;2822814;81;21072;-79
2022/04/01 06:11:38;;;;;;;14.70;8.48;;;;;;;1.21;90.25;98803.80;2801548;82;21044;-79
2022/04/01 06:16:00;;;;;;;13.03;7.55;;;;;;;1.18;90.39;98798.31;2855174;80;21577;-79
2022/04/01 06:20:03;;;;;;;11.30;8.43;;;;;;;1.24;91.34;98800.97;2847483;81;21003;-79
2022/04/01 06:24:11;;;;;;;16.35;7.50;;;;;;;1.28;90.85;98803.77;2862288;81;21549;-79
2022/04/01 06:28:24;;;;;;;14.50;9.10;;;;;;;1.30;91.22;98803.65;2818883;83;21035;-79
2022/04/01 06:32:56;;;;;;;12.15;8.03;;;;;;;1.34;91.29;98799.42;2818084;82;21073;-78
2022/04/01 06:37:03;;;;;;;10.25;7.10;;;;;;;1.39;90.21;98799.11;2804414;82;21544;-79
2022/04/01 06:41:15;;;;;;;11.85;7.05;;;;;;;1.37;91.98;98800.52;2803223;81;21095;-79
2022/04/01 06:45:16;;;;;;;10.78;7.78;;;;;;;1.45;91.87;98800.00;2800034;82;21539;-79
2022/04/01 06:49:18;;;;;;;5.83;5.15;;;;;;;1.44;90.68;98806.19;2854527;81;21008;-79
2022/04/01 06:53:20;;;;;;;8.40;6.25;;;;;;;1.40;90.01;98810.78;2852467;80;21026;-79
2022/04/01 06:57:22;;;;;;;10.65;7.75;;;;;;;1.42;89.89;98804.14;2842854;81;20964;-80
2022/04/01 07:01:25;;;;;;;11.08;8.80;;;;;;;1.50;89.46;98808.38;2799382;82;21609;-79
2022/04/01 07:05:28;;;;;;;13.35;9.65;;;;;;;1.59;89.89;98812.64;2865133;80;21005;-79
2022/04/01 07:09:30;;;;;;;10.28;7.20;;;;;;;1.70;89.59;98819.28;2841674;81;21055;-79
2022/04/01 07:13:32;;;;;;;12.80;7.30;;;;;;;1.66;88.12;98816.52;2838375;81;21045;-79
2022/04/01 07:17:35;;;;;;;12.82;8.70;;;;;;;1.72;89.25;98810.84;2843468;82;21102;-79
2022/04/01 07:21:36;;;;;;;13.88;7.80;;;;;;;1.83;88.30;98817.96;2819070;81;21016;-79
2022/04/01 07:25:38;;;;;;;17.25;7.90;;;;;;;1.86;86.82;98815.12;2799252;82;21124;-79
2022/04/01 07:29:39;;;;;;;11.90;6.15;;;;;;;1.83;86.19;98820.58;2817403;81;21044;-79
2022/04/01 07:33:40;;;;;;;10.50;7.35;;;;;;;1.83;85.27;98827.14;2845409;81;21097;-79
2022/04/01 07:37:43;;;;;;;8.78;6.33;;;;;;;1.96;85.42;98821.88;2842151;81;21439;-79
2022/04/01 07:41:44;;;;;;;7.87;6.10;;;;;;;1.92;84.54;98832.22;2837178;82;21006;-78
2022/04/01 07:45:46;;;;;;;14.85;7.72;;;;;;;1.98;84.80;98828.70;2825198;82;21110;-79
2022/04/01 07:49:51;;;;;;;9.90;8.15;;;;;;;1.98;84.73;98837.06;2845404;80;20995;-79
2022/04/01 07:53:52;;;;;;;12.70;8.43;;;;;;;2.07;84.98;98835.59;2790961;81;21080;-79
2022/04/01 07:57:56;;;;;;;10.70;7.85;;;;;;;2.04;84.34;98844.50;2829933;81;21079;-79
2022/04/01 08:01:57;;;;;;;11.90;7.97;;;;;;;2.00;83.02;98831.23;2840577;81;21004;-80
2022/04/01 08:05:59;;;;;;;16.65;8.33;;;;;;;2.04;84.07;98837.94;2831703;81;21039;-79
2022/04/01 08:10:01;;;;;;;18.40;9.40;;;;;;;2.04;83.57;98841.87;2844209;80;20983;-79
2022/04/01 08:14:03;;;;;;;14.65;8.50;;;;;;;2.12;82.67;98850.03;2848672;81;21053;-79
2022/04/01 08:18:05;;;;;;;19.55;8.60;;;;;;;2.26;82.33;98852.17;2817379;82;21685;-79
2022/04/01 08:22:06;;;;;;;13.22;9.93;;;;;;;2.27;82.01;98849.91;2852038;81;21150;-79
2022/04/01 08:26:08;;;;;;;11.90;7.60;;;;;;;2.36;81.31;98857.15;2819895;81;21545;-80
2022/04/01 08:30:11;;;;;;;27.98;8.88;;;;;;;2.34;79.67;98849.83;2850429;81;21695;-79
2022/04/01 08:34:12;;;;;;;15.15;7.83;;;;;;;2.38;79.67;98855.25;2845143;81;21555;-79
2022/04/01 08:38:14;;;;;;;18.30;7.17;;;;;;;2.54;79.70;98855.45;2838256;81;21407;-79
2022/04/01 08:42:16;;;;;;;12.30;7.62;;;;;;;2.54;78.64;98853.67;2846815;82;21049;-79
2022/04/01 08:46:20;;;;;;;18.45;8.55;;;;;;;2.55;77.64;98863.69;2829845;81;21025;-79
2022/04/01 08:50:21;;;;;;;20.30;7.15;;;;;;;2.65;77.60;98864.72;2854424;80;21026;-79
2022/04/01 08:54:23;;;;;;;13.75;7.85;;;;;;;2.75;77.93;98863.58;2855733;81;21080;-78
2022/04/01 08:58:25;;;;;;;13.48;7.67;;;;;;;2.70;76.92;98866.53;2886171;80;21031;-79
2022/04/01 09:02:26;;;;;;;13.65;6.53;;;;;;;2.80;77.64;98869.83;2821551;82;21079;-78
2022/04/01 09:06:28;;;;;;;14.43;9.30;;;;;;;2.80;78.07;98870.64;2799942;81;21723;-79
2022/04/01 09:10:30;;;;;;;11.53;7.28;;;;;;;2.86;77.20;98879.87;2845752;81;21625;-78
2022/04/01 09:14:33;;;;;;;16.62;7.25;;;;;;;2.80;76.95;98881.15;2822181;81;21689;-79
2022/04/01 09:18:44;;;;;;;16.97;8.98;;;;;;;2.85;77.72;98883.45;2862175;81;21018;-78
2022/04/01 09:22:46;;;;;;;13.13;6.80;;;;;;;2.90;78.33;98890.52;2852698;81;21051;-78
2022/04/01 09:26:54;;;;;;;12.00;7.60;;;;;;;2.91;76.79;98890.05;2852383;81;21052;-78
2022/04/01 09:31:06;;;;;;;14.00;7.42;;;;;;;2.78;76.78;98902.75;2786711;83;21119;-78
2022/04/01 09:35:11;;;;;;;13.20;8.68;;;;;;;2.83;79.13;98902.42;2800218;83;21539;-78
2022/04/01 09:39:19;;;;;;;15.40;11.28;;;;;;;2.83;77.85;98895.86;2800866;82;21037;-79
2022/04/01 09:43:24;;;;;;;11.28;7.60;;;;;;;2.82;77.99;98905.52;2853121;82;21063;-79
2022/04/01 09:47:26;;;;;;;12.40;6.53;;;;;;;2.79;78.32;98908.36;2850233;81;21114;-79
2022/04/01 09:51:34;;;;;;;11.83;7.95;;;;;;;2.78;78.19;98908.49;2854008;81;21000;-79
2022/04/01 09:55:38;;;;;;;15.23;6.92;;;;;;;2.78;78.00;98901.92;2841973;81;21072;-79
2022/04/01 09:59:42;;;;;;;16.17;8.78;;;;;;;2.82;78.59;98912.08;2838704;82;21524;-79
2022/04/01 10:03:44;;;;;;;14.33;10.18;;;;;;;2.82;78.19;98909.45;2854464;81;21068;-79
2022/04/01 10:07:46;;;;;;;16.73;9.28;;;;;;;2.93;79.03;98904.73;2839124;82;21541;-79
2022/04/01 10:11:50;;;;;;;15.70;9.45;;;;;;;2.99;78.00;98905.63;2858279;81;21031;-79
2022/04/01 10:15:53;;;;;;;16.27;9.13;;;;;;;3.18;79.28;98897.72;2769994;84;22204;-79
2022/04/01 10:19:58;;;;;;;9.65;7.10;;;;;;;3.33;78.71;98904.09;2825435;82;21173;-80
2022/04/01 10:24:23;;;;;;;21.53;9.37;;;;;;;3.43;78.50;98909.86;2821605;82;21063;-79
2022/04/01 10:28:26;;;;;;;15.60;8.10;;;;;;;3.52;77.56;98910.14;2840147;81;21106;-79
2022/04/01 10:32:39;;;;;;;19.23;10.68;;;;;;;3.66;78.32;98909.10;2839667;81;21071;-81
2022/04/01 10:36:42;;;;;;;17.92;7.58;;;;;;;3.68;77.67;98913.77;2821224;82;21606;-82
2022/04/01 10:40:49;;;;;;;17.90;8.48;;;;;;;3.69;77.50;98916.76;2774754;83;21008;-81
2022/04/01 10:45:00;;;;;;;13.10;8.43;;;;;;;3.70;77.37;98919.75;2836632;82;21501;-81
2022/04/01 10:53:45;;;;;;;15.48;9.00;;;;;;;3.67;78.53;98918.20;2885061;80;20963;-81
2022/04/01 10:57:50;;;;;;;13.25;8.75;;;;;;;3.69;78.08;98914.13;2844496;81;21598;-81
2022/04/01 11:02:02;;;;;;;15.48;7.95;;;;;;;3.60;78.99;98919.59;2834156;80;21028;-80
2022/04/01 11:06:26;;;;;;;13.88;8.90;;;;;;;3.60;79.27;98916.15;2829721;81;20980;-81
2022/04/01 11:10:27;;;;;;;14.03;7.50;;;;;;;3.46;78.37;98915.38;2828089;81;21571;-80
2022/04/01 11:14:28;;;;;;;17.32;7.55;;;;;;;3.36;78.61;98924.91;2883473;80;21061;-81
2022/04/01 11:18:30;;;;;;;12.80;6.95;;;;;;;3.33;79.43;98924.65;2870810;81;21034;-81
2022/04/01 11:22:45;;;;;;;13.70;6.83;;;;;;;3.35;80.43;98916.66;2862675;81;21032;-81
2022/04/01 11:26:46;;;;;;;12.93;7.25;;;;;;;3.42;80.28;98910.81;2819618;81;21032;-80
2022/04/01 11:30:56;;;;;;;16.77;9.08;;;;;;;3.47;80.55;98923.63;2820793;81;21047;-81
2022/04/01 11:34:58;;;;;;;12.88;8.20;;;;;;;3.56;80.63;98922.10;2807869;82;21086;-81
2022/04/01 11:39:00;;;;;;;10.78;6.50;;;;;;;3.53;78.81;98917.90;2860999;82;21062;-81
2022/04/01 11:43:08;;;;;;;11.65;7.85;;;;;;;3.55;78.23;98919.97;2857266;81;21605;-80
2022/04/01 11:47:10;;;;;;;11.85;7.47;;;;;;;3.61;78.42;98906.81;2862816;80;20988;-81
2022/04/01 11:51:16;;;;;;;11.85;7.20;;;;;;;3.70;79.54;98901.34;2832421;81;21067;-81
2022/04/01 11:55:21;;;;;;;12.05;7.22;;;;;;;3.72;77.07;98898.11;2869308;81;21114;-81
2022/04/01 11:59:25;;;;;;;11.38;6.75;;;;;;;3.77;78.25;98898.63;2846243;81;21000;-81
2022/04/01 12:03:26;;;;;;;12.90;9.63;;;;;;;3.82;76.72;98889.05;2857358;81;21022;-83
2022/04/01 12:11:47;;;;;;;15.05;8.35;;;;;;;4.02;77.68;98898.05;2838810;81;21697;-82
2022/04/01 12:15:52;;;;;;;10.15;7.22;;;;;;;4.13;79.17;98898.08;2842868;81;21149;-82
2022/04/01 12:20:12;;;;;;;21.90;8.58;;;;;;;4.23;78.24;98894.72;2855654;81;21046;-82
2022/04/01 12:24:13;;;;;;;10.98;7.87;;;;;;;4.36;76.51;98883.59;2816159;81;21519;-82
2022/04/01 12:28:17;;;;;;;14.98;10.32;;;;;;;4.49;78.02;98884.78;2820001;81;21922;-82
2022/04/01 12:32:18;;;;;;;12.50;8.45;;;;;;;4.63;77.72;98888.94;2813498;81;21170;-82
2022/04/01 12:36:38;;;;;;;12.13;7.25;;;;;;;4.80;77.51;98883.63;2814209;82;21186;-80
2022/04/01 12:40:51;;;;;;;21.10;7.25;;;;;;;4.97;75.25;98886.24;2825936;82;21031;-81
2022/04/01 12:44:56;;;;;;;14.55;8.28;;;;;;;5.17;75.69;98871.92;2816613;82;21070;-81
2022/04/01 12:49:12;;;;;;;12.70;7.35;;;;;;;5.41;75.23;98874.80;2802470;82;21146;-83
2022/04/01 12:53:15;;;;;;;11.65;6.83;;;;;;;5.50;73.03;98867.45;2783359;81;21115;-80
2022/04/01 12:57:19;;;;;;;15.03;7.72;;;;;;;5.56;72.34;98857.70;2816535;81;21158;-81
2022/04/01 13:01:27;;;;;;;14.38;5.78;;;;;;;5.64;71.61;98857.53;2804326;82;21039;-84
2022/04/01 13:05:29;;;;;;;22.40;6.60;;;;;;;5.71;72.75;98858.20;2818933;82;21059;-81
2022/04/01 13:09:31;;;;;;;9.25;6.60;;;;;;;5.82;73.19;98849.38;2846704;81;21027;-82
2022/04/01 13:13:34;;;;;;;24.35;6.65;;;;;;;5.90;71.48;98850.05;2771761;83;21602;-83
2022/04/01 13:17:51;;;;;;;17.02;5.60;;;;;;;5.98;71.10;98851.53;2773693;82;21594;-83
2022/04/01 13:21:57;;;;;;;19.30;6.58;;;;;;;5.98;68.93;98843.61;2826358;82;21047;-83
2022/04/01 13:25:59;;;;;;;14.15;5.87;;;;;;;5.87;67.79;98845.03;2843069;82;21076;-87
2022/04/01 13:30:01;;;;;;;20.75;6.40;;;;;;;5.69;63.98;98849.59;2855157;81;20971;-87
2022/04/01 13:34:02;;;;;;;24.40;6.22;;;;;;;5.57;63.58;98847.97;2832408;81;21174;-88
2022/04/01 13:38:04;;;;;;;23.40;4.97;;;;;;;5.47;63.95;98857.14;2790933;81;21111;-87
2022/04/01 13:42:07;;;;;;;15.80;4.60;;;;;;;5.33;60.41;98865.39;2828147;82;21166;-87
2022/04/01 13:46:08;;;;;;;22.73;6.03;;;;;;;5.15;60.11;98860.16;2858056;82;21566;-84
2022/04/01 13:50:10;;;;;;;20.80;5.03;;;;;;;5.11;59.39;98867.13;2844078;81;21036;-84
2022/04/01 13:54:12;;;;;;;18.23;5.35;;;;;;;5.05;60.48;98862.37;2807356;82;20978;-88
2022/04/01 13:58:14;;;;;;;16.00;5.45;;;;;;;5.00;60.49;98855.68;2816374;81;21131;-90
2022/04/01 14:02:16;;;;;;;21.30;5.33;;;;;;;5.02;60.97;98857.35;2842446;82;21025;-89
2022/04/01 14:06:17;;;;;;;20.48;6.15;;;;;;;4.99;57.51;98859.28;2859232;81;21031;-89
2022/04/01 14:10:19;;;;;;;20.40;6.30;;;;;;;4.94;59.84;98869.36;2857428;81;21023;-91
2022/04/01 14:14:20;;;;;;;19.65;5.28;;;;;;;4.89;59.05;98873.33;2827649;81;21077;-87
2022/04/01 14:18:22;;;;;;;15.60;5.62;;;;;;;4.85;57.29;98873.58;2799499;82;21044;-84
2022/04/01 14:22:23;;;;;;;13.25;6.05;;;;;;;4.84;59.57;98876.33;2795237;82;21035;-84
2022/04/01 14:26:26;;;;;;;20.17;4.65;;;;;;;4.76;55.34;98896.70;2794105;83;21733;-83
2022/04/01 14:30:27;;;;;;;17.17;4.87;;;;;;;4.76;57.25;98873.48;2800870;83;21040;-84
2022/04/01 14:34:36;;;;;;;9.78;4.53;;;;;;;4.75;58.81;98876.59;2809008;82;21067;-84
2022/04/01 14:38:39;;;;;;;11.40;4.35;;;;;;;4.77;58.36;98877.30;2787929;83;21864;-82
2022/04/01 14:42:42;;;;;;;16.73;4.40;;;;;;;4.75;59.09;98888.94;2787861;82;21035;-86
2022/04/01 14:46:44;;;;;;;10.20;4.65;;;;;;;4.64;56.66;98888.48;2780841;82;21583;-83
2022/04/01 14:50:46;;;;;;;12.73;4.12;;;;;;;4.66;56.35;98884.74;2817402;82;21100;-84
2022/04/01 14:54:48;;;;;;;9.25;3.85;;;;;;;4.68;58.70;98886.77;2797072;82;21119;-85
2022/04/01 14:58:49;;;;;;;14.00;3.83;;;;;;;4.70;59.64;98891.44;2825117;81;21028;-84
2022/04/01 15:02:51;;;;;;;15.98;4.65;;;;;;;4.72;60.28;98901.86;2818823;81;20992;-85
2022/04/01 15:06:53;;;;;;;16.95;4.10;;;;;;;4.68;59.35;98895.98;2805204;83;21055;-84
2022/04/01 15:10:54;;;;;;;17.12;4.47;;;;;;;4.75;60.62;98891.08;2807288;82;21048;-83
2022/04/01 15:14:56;;;;;;;13.30;5.12;;;;;;;4.78;60.55;98895.27;2832245;82;21080;-84
2022/04/01 15:18:57;;;;;;;10.78;3.65;;;;;;;4.73;57.32;98893.50;2816584;82;21115;-84
2022/04/01 15:22:59;;;;;;;15.40;4.45;;;;;;;4.77;58.40;98906.77;2794690;82;21173;-88
2022/04/01 15:27:02;;;;;;;9.75;4.67;;;;;;;4.70;58.86;98905.92;2829685;81;21161;-85
2022/04/01 15:31:03;;;;;;;11.50;3.77;;;;;;;4.76;57.81;98900.65;2812844;81;21130;-82
2022/04/01 15:35:06;;;;;;;13.98;5.78;;;;;;;4.74;57.83;98899.12;2805174;83;21642;-82
2022/04/01 15:39:10;;;;;;;15.00;4.80;;;;;;;4.75;58.48;98903.42;2805653;82;21079;-83
2022/04/01 15:43:11;;;;;;;11.97;4.58;;;;;;;4.82;57.88;98907.23;2787119;83;20988;-85
2022/04/01 15:47:14;;;;;;;12.60;5.80;;;;;;;4.85;59.01;98917.05;2799466;80;21033;-82
2022/04/01 15:51:22;;;;;;;13.43;4.85;;;;;;;4.91;59.17;98918.34;2831087;81;21015;-83
2022/04/01 15:55:22;;;;;;;14.30;5.15;;;;;;;4.99;59.52;98919.05;2844634;81;21114;-82
2022/04/01 15:59:24;;;;;;;15.38;5.62;;;;;;;5.10;60.45;98922.12;2859049;81;20980;-83
2022/04/01 16:03:32;;;;;;;25.02;8.20;;;;;;;5.14;58.70;98928.84;2853210;81;21062;-83
2022/04/01 16:07:36;;;;;;;21.07;8.68;;;;;;;5.18;59.18;98928.95;2859591;81;21442;-82
2022/04/01 16:11:40;;;;;;;23.77;7.90;;;;;;;5.21;56.63;98929.16;2836039;81;21069;-82
2022/04/01 16:15:42;;;;;;;16.37;5.83;;;;;;;5.23;57.23;98933.36;2839130;81;20968;-83
2022/04/01 16:19:48;;;;;;;19.67;6.05;;;;;;;5.19;54.27;98933.73;2795116;82;21039;-83
2022/04/01 16:23:54;;;;;;;14.33;7.00;;;;;;;5.22;54.98;98934.32;2775818;83;21035;-83
2022/04/01 16:27:56;;;;;;;42.38;9.68;;;;;;;5.18;54.39;98939.50;2805565;83;21111;-83
2022/04/01 16:31:57;;;;;;;21.25;8.65;;;;;;;5.18;55.48;98950.05;2800032;81;21123;-82
2022/04/01 16:35:59;;;;;;;19.20;7.60;;;;;;;5.18;55.36;98955.31;2802754;82;21110;-82
2022/04/01 16:40:01;;;;;;;16.70;5.90;;;;;;;5.15;52.45;98954.25;2820410;81;21741;-83
2022/04/01 16:44:02;;;;;;;14.20;6.53;;;;;;;5.19;52.99;98961.41;2835646;81;21675;-84
2022/04/01 16:48:05;;;;;;;15.20;5.47;;;;;;;5.17;54.14;98969.45;2807046;82;21111;-83
2022/04/01 16:52:07;;;;;;;16.48;6.95;;;;;;;5.14;51.08;98968.39;2808371;82;21040;-83
2022/04/01 16:56:09;;;;;;;14.35;5.75;;;;;;;5.16;53.37;98984.92;2819427;82;21009;-84
2022/04/01 17:00:11;;;;;;;15.72;4.80;;;;;;;5.15;51.50;98966.11;2820121;82;21020;-82
2022/04/01 17:04:14;;;;;;;12.78;5.75;;;;;;;5.12;51.08;98979.54;2813027;83;21649;-82
2022/04/01 17:12:40;;;;;;;24.00;5.92;;;;;;;4.98;50.71;98982.79;2819329;82;21575;-83
2022/04/01 17:16:42;;;;;;;10.08;4.83;;;;;;;4.94;50.27;98982.68;2818488;82;21980;-82
2022/04/01 17:20:44;;;;;;;19.32;6.05;;;;;;;4.95;49.39;98996.68;2800653;82;21040;-83
2022/04/01 17:24:46;;;;;;;11.05;5.50;;;;;;;4.97;50.12;98990.34;2816508;83;21579;-83
2022/04/01 17:28:48;;;;;;;16.10;5.53;;;;;;;4.96;49.88;98995.25;2809340;82;21077;-86
2022/04/01 17:32:51;;;;;;;17.98;6.78;;;;;;;4.98;49.80;99002.56;2805457;82;21023;-86
2022/04/01 17:36:53;;;;;;;17.17;6.83;;;;;;;5.00;49.30;98995.36;2811714;82;21029;-87
2022/04/01 17:41:01;;;;;;;14.65;6.95;;;;;;;5.02;50.90;98998.36;2816943;81;20997;-84
2022/04/01 17:45:04;;;;;;;14.85;7.05;;;;;;;5.01;52.98;99008.05;2777592;83;21075;-87
2022/04/01 17:49:05;;;;;;;19.45;7.03;;;;;;;4.96;50.43;99003.16;2833572;82;21674;-84
2022/04/01 17:53:07;;;;;;;19.62;6.65;;;;;;;5.00;51.20;98999.78;2834026;81;21114;-84
2022/04/01 17:57:10;;;;;;;16.07;5.65;;;;;;;4.95;50.23;99012.03;2862949;81;21100;-84
2022/04/01 18:01:11;;;;;;;13.00;5.50;;;;;;;5.02;51.88;99007.58;2849725;81;21039;-84
2022/04/01 18:05:15;;;;;;;9.15;4.87;;;;;;;4.94;49.56;99015.63;2842159;82;21031;-84
2022/04/01 18:09:26;;;;;;;12.23;6.15;;;;;;;4.98;49.30;99021.47;2843916;81;20992;-83
2022/04/01 18:13:28;;;;;;;13.75;6.40;;;;;;;5.02;49.83;99018.13;2846075;81;21705;-83
2022/04/01 18:17:33;;;;;;;20.68;7.80;;;;;;;4.99;51.40;99037.64;2827990;81;21054;-83
2022/04/01 18:21:33;;;;;;;14.68;5.67;;;;;;;4.95;50.35;99033.11;2841643;81;21472;-83
2022/04/01 18:25:39;;;;;;;20.65;5.15;;;;;;;5.00;50.12;99040.63;2850865;81;21091;-84
2022/04/01 18:29:46;;;;;;;19.87;6.50;;;;;;;4.99;49.28;99040.28;2909479;80;21106;-81
2022/04/01 18:33:51;;;;;;;15.18;5.78;;;;;;;5.02;48.96;99048.44;2852656;80;21030;-83
2022/04/01 18:37:55;;;;;;;15.50;5.17;;;;;;;5.08;50.25;99045.30;2890762;79;21554;-81
2022/04/01 18:42:05;;;;;;;10.20;5.75;;;;;;;5.13;49.55;99055.03;2897174;80;21019;-85
2022/04/01 18:46:09;;;;;;;13.25;5.28;;;;;;;5.09;49.81;99076.83;2896869;80;21007;-83
2022/04/01 18:50:14;;;;;;;12.63;6.67;;;;;;;5.05;47.87;99062.22;2922583;80;21498;-83
2022/04/01 18:54:15;;;;;;;11.55;4.40;;;;;;;5.04;49.06;99064.50;2881457;79;21027;-83
2022/04/01 18:58:17;;;;;;;13.58;6.00;;;;;;;4.97;48.72;99069.41;2867086;79;21065;-83
2022/04/01 19:03:07;;;;;;;10.55;5.28;;;;;;;5.06;50.00;99073.58;2867200;79;21000;-83
2022/04/01 19:07:52;;;;;;;22.62;5.92;;;;;;;5.03;49.32;99071.19;2851126;79;21499;-84
2022/04/01 19:11:59;;;;;;;13.93;5.53;;;;;;;4.98;48.29;99081.63;2882834;79;20992;-80
2022/04/01 19:16:03;;;;;;;13.55;6.17;;;;;;;4.99;49.38;99081.98;2903121;79;21069;-81
2022/04/01 19:20:10;;;;;;;12.20;6.53;;;;;;;4.97;49.00;99082.58;2872511;79;21094;-81
2022/04/01 19:24:11;;;;;;;9.40;5.17;;;;;;;4.97;48.88;99081.73;2892690;79;21593;-82
2022/04/01 19:28:13;;;;;;;19.60;5.58;;;;;;;4.97;48.59;99089.64;2904680;79;21000;-81
2022/04/01 19:32:14;;;;;;;16.48;8.08;;;;;;;4.98;49.31;99097.44;2890165;79;21063;-82
2022/04/01 19:36:16;;;;;;;14.20;5.58;;;;;;;4.93;48.95;99097.42;2880965;79;21546;-82